Time;durP1;ratioP1;P1;durP2;ratioP2;P2;SDS_P1;SDS_P2;PMS_P1;PMS_P2;Temp;Humidity;BMP_temperature;BMP_pressure;BME280_temperature;BME280_humidity;BME280_pressure;Samples;Min_cycle;Max_cycle;Signal;HPM_P1;HPM_P2
2021/11/01 20:04:59;;;;;;;8.23;5.63;;;10.30;98.30;;;;;;4074343;29;21009;-84
2021/11/01 20:12:19;;;;;;;10.13;5.90;;;10.20;98.30;;;;;;4133231;28;20935;-84
2021/11/01 21:24:50;;;;;;;9.37;4.97;;;9.60;98.30;;;;;;5184672;22;20432;-83
2021/11/01 21:26:56;;;;;;;7.27;4.77;;;9.50;98.30;;;;;;5174588;23;20412;-83
2021/11/01 21:28:59;;;;;;;9.40;4.83;;;9.50;98.30;;;;;;5178298;23;20424;-83
2021/11/01 21:31:02;;;;;;;9.00;5.70;;;9.60;98.30;;;;;;5180574;23;20431;-82
2021/11/01 21:33:06;;;;;;;5.83;4.60;;;9.60;98.30;;;;;;5179362;23;20451;-82
2021/11/01 21:35:12;;;;;;;7.73;4.33;;;9.60;98.30;;;;;;5178138;23;20437;-82
2021/11/01 21:37:17;;;;;;;10.90;4.67;;;9.60;98.30;;;;;;5171536;23;20451;-83
2021/11/01 21:39:20;;;;;;;5.67;3.80;;;9.60;98.30;;;;;;5180215;23;20422;-82
2021/11/01 21:41:23;;;;;;;5.37;4.27;;;9.70;98.30;;;;;;5179605;23;20428;-82
2021/11/01 21:43:28;;;;;;;8.50;4.70;;;9.60;98.30;;;;;;5178660;23;20518;-83
2021/11/01 21:45:31;;;;;;;10.13;4.70;;;9.60;98.30;;;;;;5175935;23;20416;-81
2021/11/01 21:47:35;;;;;;;4.37;3.83;;;9.70;98.30;;;;;;5175456;23;20901;-82
2021/11/01 21:49:39;;;;;;;6.37;4.53;;;9.60;98.30;;;;;;5175556;23;20428;-82
2021/11/01 21:51:43;;;;;;;5.20;3.90;;;9.70;98.30;;;;;;5167315;23;20447;-81
2021/11/01 21:53:55;;;;;;;9.13;4.13;;;9.70;98.30;;;;;;5167165;23;20777;-81
2021/11/01 21:55:58;;;;;;;8.30;4.40;;;9.70;98.30;;;;;;5167296;23;21056;-82
2021/11/01 21:58:06;;;;;;;5.73;4.10;;;9.70;98.30;;;;;;5166641;23;20436;-82
2021/11/01 22:00:25;;;;;;;4.77;4.00;;;9.60;98.30;;;;;;5167178;23;20926;-82
2021/11/01 22:17:00;;;;;;;7.07;4.27;;;9.50;98.30;;;;;;5166869;23;20541;-82
2021/11/01 22:21:29;;;;;;;4.90;4.40;;;9.50;98.30;;;;;;5166933;23;20413;-82
2021/11/01 22:23:40;;;;;;;9.63;4.30;;;9.60;98.30;;;;;;5175308;23;20517;-82
2021/11/01 22:25:49;;;;;;;5.83;4.63;;;9.60;98.30;;;;;;5175362;23;20418;-82
2021/11/01 22:33:11;;;;;;;7.83;4.37;;;9.50;98.30;;;;;;5167308;23;20540;-82
2021/11/01 22:40:13;;;;;;;11.03;4.50;;;9.40;98.30;;;;;;5123915;23;20983;-82
2021/11/01 22:42:28;;;;;;;10.23;5.27;;;9.40;98.30;;;;;;5175116;23;20450;-82
2021/11/01 22:56:17;;;;;;;6.10;4.17;;;9.40;98.30;;;;;;5167184;23;20438;-82
2021/11/01 22:58:23;;;;;;;11.20;5.13;;;9.30;98.30;;;;;;5175137;23;20872;-81
2021/11/01 23:00:33;;;;;;;8.70;4.70;;;9.30;98.30;;;;;;5166524;23;20432;-82
2021/11/01 23:02:36;;;;;;;7.60;4.60;;;9.20;98.30;;;;;;5166924;23;20445;-82
2021/11/01 23:04:47;;;;;;;7.90;4.70;;;9.20;98.30;;;;;;5166829;23;20437;-81
2021/11/01 23:32:43;;;;;;;12.27;5.07;;;9.10;98.30;;;;;;5166216;23;20984;-81
2021/11/01 23:34:46;;;;;;;7.30;4.90;;;9.10;98.30;;;;;;5166896;23;20903;-81
2021/11/01 23:36:49;;;;;;;9.70;4.70;;;9.10;98.30;;;;;;5175079;23;20516;-81
2021/11/01 23:38:52;;;;;;;11.13;5.03;;;9.20;98.30;;;;;;5166424;23;20427;-81
2021/11/01 23:40:55;;;;;;;8.20;4.30;;;9.10;98.30;;;;;;5174576;23;20449;-82
2021/11/01 23:42:58;;;;;;;6.90;4.37;;;9.20;98.30;;;;;;5174295;23;20444;-81
2021/11/01 23:45:01;;;;;;;7.03;4.40;;;9.10;98.30;;;;;;5174928;23;20423;-82
2021/11/01 23:47:06;;;;;;;8.53;4.30;;;9.10;98.30;;;;;;5166279;23;20426;-81
2021/11/01 23:49:09;;;;;;;8.20;4.40;;;9.10;98.30;;;;;;5174833;23;20774;-81
2021/11/01 23:51:16;;;;;;;7.20;4.70;;;9.10;98.30;;;;;;5166774;23;20429;-81
2021/11/01 23:53:33;;;;;;;10.40;4.80;;;9.10;98.30;;;;;;5174805;23;20449;-81
2021/11/01 23:55:36;;;;;;;8.67;4.40;;;9.10;98.30;;;;;;5174831;23;20429;-81
2021/11/01 23:57:39;;;;;;;7.77;4.50;;;9.10;98.30;;;;;;5174270;23;20442;-81
2021/11/01 23:59:42;;;;;;;9.00;4.63;;;9.00;98.30;;;;;;5174728;23;20418;-81
